createdAt,value
2023-05-20T00:00:03.777Z,12.99
2023-05-20T00:02:31.608Z,13.02
2023-05-20T00:04:59.512Z,12.80
2023-05-20T00:07:28.774Z,13.30
2023-05-20T00:09:56.608Z,12.93
2023-05-20T00:12:24.348Z,13.04
2023-05-20T00:14:53.756Z,12.91
2023-05-20T00:17:22.306Z,13.05
2023-05-20T00:19:50.033Z,13.03
2023-05-20T00:22:17.791Z,12.68
2023-05-20T00:24:46.871Z,12.68
2023-05-20T00:27:14.593Z,12.95
2023-05-20T00:29:42.467Z,12.84
2023-05-20T00:32:10.352Z,12.54
2023-05-20T00:34:38.460Z,12.85
2023-05-20T00:37:06.651Z,13.07
2023-05-20T00:39:34.439Z,12.98
2023-05-20T00:42:03.580Z,13.06
2023-05-20T00:44:31.337Z,12.50
2023-05-20T00:46:59.157Z,12.55
2023-05-20T00:49:26.913Z,12.85
2023-05-20T00:51:54.665Z,12.60
2023-05-20T00:54:23.480Z,12.44
2023-05-20T00:56:52.155Z,12.64
2023-05-20T00:59:21.534Z,12.54
2023-05-20T01:01:49.415Z,12.55
2023-05-20T01:04:17.267Z,12.33
2023-05-20T01:06:46.244Z,12.44
2023-05-20T01:09:14.749Z,12.40
2023-05-20T01:11:49.687Z,12.52
2023-05-20T01:14:20.044Z,12.35
2023-05-20T01:16:50.517Z,12.29
2023-05-20T01:19:27.943Z,12.04
2023-05-20T01:21:57.660Z,12.39
2023-05-20T01:24:27.139Z,12.29
2023-05-20T01:26:58.125Z,12.19
2023-05-20T01:29:26.400Z,12.10
2023-05-20T01:31:56.279Z,12.60
2023-05-20T01:34:25.384Z,12.30
2023-05-20T01:36:55.147Z,12.11
2023-05-20T01:39:24.315Z,12.10
2023-05-20T01:41:55.270Z,12.60
2023-05-20T01:44:23.531Z,12.55
2023-05-20T01:46:51.510Z,12.39
2023-05-20T01:49:19.343Z,12.65
2023-05-20T01:51:47.125Z,12.75
2023-05-20T01:54:14.943Z,12.77
2023-05-20T01:56:42.713Z,12.70
2023-05-20T01:59:11.840Z,12.68
2023-05-20T02:01:39.554Z,12.43
2023-05-20T02:04:07.616Z,12.62
2023-05-20T02:06:35.412Z,12.60
2023-05-20T02:09:04.309Z,12.90
2023-05-20T02:11:32.124Z,12.59
2023-05-20T02:13:59.887Z,12.38
2023-05-20T02:16:29.173Z,12.50
2023-05-20T02:18:58.634Z,12.23
2023-05-20T02:21:27.024Z,12.19
2023-05-20T02:23:54.799Z,12.49
2023-05-20T02:26:22.732Z,12.60
2023-05-20T02:28:50.870Z,12.38
2023-05-20T02:31:19.045Z,12.38
2023-05-20T02:33:48.197Z,12.17
2023-05-20T02:36:17.203Z,12.59
2023-05-20T02:38:45.926Z,12.48
2023-05-20T02:41:13.720Z,12.49
2023-05-20T02:43:41.508Z,12.68
2023-05-20T02:46:09.274Z,12.73
2023-05-20T02:48:37.055Z,12.53
2023-05-20T02:51:06.892Z,12.79
2023-05-20T02:53:34.692Z,12.85
2023-05-20T02:56:02.606Z,12.62
2023-05-20T02:58:30.346Z,12.45
2023-05-20T03:00:58.701Z,12.75
2023-05-20T03:03:27.712Z,12.93
2023-05-20T03:05:55.488Z,12.30
2023-05-20T03:08:24.680Z,12.44
2023-05-20T03:10:52.588Z,12.30
2023-05-20T03:13:20.517Z,12.47
2023-05-20T03:15:48.331Z,12.33
2023-05-20T03:18:16.116Z,12.11
2023-05-20T03:20:44.064Z,12.52
2023-05-20T03:23:12.158Z,11.88
2023-05-20T03:25:41.663Z,11.93
2023-05-20T03:28:09.541Z,11.75
2023-05-20T03:30:37.765Z,12.05
2023-05-20T03:33:05.910Z,12.30
2023-05-20T03:35:33.952Z,12.06
2023-05-20T03:38:01.899Z,12.17
2023-05-20T03:40:29.801Z,11.98
2023-05-20T03:42:58.928Z,12.42
2023-05-20T03:45:26.729Z,12.14
2023-05-20T03:47:54.610Z,12.45
2023-05-20T03:50:22.374Z,12.43
2023-05-20T03:52:50.120Z,11.92
2023-05-20T03:55:20.396Z,11.89
2023-05-20T03:57:48.164Z,12.32
2023-05-20T04:00:18.784Z,12.47
2023-05-20T04:02:47.015Z,12.61
2023-05-20T04:05:14.822Z,12.56
2023-05-20T04:07:42.634Z,12.53
2023-05-20T04:10:11.646Z,12.23
2023-05-20T04:12:39.435Z,12.59
2023-05-20T04:15:08.729Z,12.72
2023-05-20T04:17:40.520Z,12.71
2023-05-20T04:20:10.164Z,12.43
2023-05-20T04:22:39.468Z,12.52
2023-05-20T04:25:07.984Z,12.56
2023-05-20T04:27:35.743Z,12.30
2023-05-20T04:30:04.090Z,12.29
2023-05-20T04:32:31.916Z,12.14
2023-05-20T04:35:02.078Z,12.10
2023-05-20T04:37:29.863Z,12.22
2023-05-20T04:39:57.614Z,11.92
2023-05-20T04:42:25.883Z,11.80
2023-05-20T04:44:53.633Z,12.06
2023-05-20T04:47:21.523Z,12.27
2023-05-20T04:49:50.324Z,12.09
2023-05-20T04:52:19.468Z,12.16
2023-05-20T04:54:47.262Z,12.20
2023-05-20T04:57:14.949Z,12.20
2023-05-20T04:59:42.697Z,11.93
2023-05-20T05:02:10.782Z,11.63
2023-05-20T05:04:38.727Z,11.54
2023-05-20T05:07:06.696Z,11.79
2023-05-20T05:09:36.133Z,11.68
2023-05-20T05:12:03.855Z,12.01
2023-05-20T05:14:31.550Z,12.04
2023-05-20T05:16:59.316Z,12.27
2023-05-20T05:19:27.138Z,12.24
2023-05-20T05:21:54.970Z,12.28
2023-05-20T05:24:22.749Z,11.65
2023-05-20T05:26:54.882Z,11.94
2023-05-20T05:29:22.794Z,12.23
2023-05-20T05:31:50.666Z,12.46
2023-05-20T05:34:18.547Z,12.75
2023-05-20T05:36:46.307Z,12.49
2023-05-20T05:39:14.070Z,12.40
2023-05-20T05:41:41.851Z,12.14
2023-05-20T05:44:10.947Z,12.68
2023-05-20T05:46:38.712Z,13.07
2023-05-20T05:49:06.536Z,13.14
2023-05-20T05:51:35.475Z,12.48
2023-05-20T05:54:04.235Z,13.09
2023-05-20T05:56:31.946Z,12.71
2023-05-20T05:58:59.720Z,13.22
2023-05-20T06:01:28.828Z,12.68
2023-05-20T06:03:56.578Z,13.25
2023-05-20T06:06:24.386Z,13.03
2023-05-20T06:08:52.100Z,12.78
2023-05-20T06:11:20.825Z,13.16
2023-05-20T06:13:48.586Z,12.75
2023-05-20T06:16:16.664Z,13.01
2023-05-20T06:18:47.214Z,13.10
2023-05-20T06:21:14.965Z,12.76
2023-05-20T06:23:42.732Z,13.41
2023-05-20T06:26:10.513Z,13.28
2023-05-20T06:28:38.328Z,12.97
2023-05-20T06:31:06.283Z,13.10
2023-05-20T06:33:34.084Z,13.41
2023-05-20T06:36:03.224Z,13.01
2023-05-20T06:38:31.083Z,13.47
2023-05-20T06:40:58.937Z,14.30
2023-05-20T06:43:26.777Z,14.38
2023-05-20T06:45:54.749Z,14.36
2023-05-20T06:48:22.522Z,14.26
2023-05-20T06:50:50.312Z,13.96
2023-05-20T06:53:19.428Z,14.11
2023-05-20T06:55:47.218Z,14.09
2023-05-20T06:58:15.141Z,14.70
2023-05-20T07:00:42.844Z,14.11
2023-05-20T07:03:11.770Z,14.01
2023-05-20T07:05:39.605Z,13.88
2023-05-20T07:08:07.329Z,13.71
2023-05-20T07:10:36.976Z,14.03
2023-05-20T07:13:04.951Z,14.16
2023-05-20T07:15:32.830Z,14.15
2023-05-20T07:18:01.128Z,14.54
2023-05-20T07:20:29.069Z,14.22
2023-05-20T07:22:56.842Z,14.56
2023-05-20T07:25:24.602Z,14.16
2023-05-20T07:27:53.738Z,14.65
2023-05-20T07:30:21.578Z,14.94
2023-05-20T07:32:49.364Z,14.93
2023-05-20T07:35:17.300Z,14.59
2023-05-20T07:37:45.186Z,14.32
2023-05-20T07:40:14.472Z,14.50
2023-05-20T07:42:42.274Z,14.71
2023-05-20T07:45:12.073Z,14.78
2023-05-20T07:47:39.928Z,14.80
2023-05-20T07:50:08.529Z,14.74
2023-05-20T07:52:51.802Z,15.18
2023-05-20T07:55:24.002Z,15.32
2023-05-20T07:57:51.716Z,15.54
2023-05-20T08:00:21.383Z,15.04
2023-05-20T08:02:49.296Z,15.37
2023-05-20T08:05:17.258Z,15.45
2023-05-20T08:07:45.506Z,15.82
2023-05-20T08:10:13.317Z,16.44
2023-05-20T08:12:41.297Z,16.69
2023-05-20T08:15:09.783Z,16.52
2023-05-20T08:17:39.415Z,17.36
2023-05-20T08:20:09.570Z,16.98
2023-05-20T08:22:37.771Z,17.21
2023-05-20T08:25:09.044Z,17.67
2023-05-20T08:27:37.497Z,17.35
2023-05-20T08:30:08.152Z,17.40
2023-05-20T08:32:36.251Z,18.03
2023-05-20T08:35:06.663Z,18.12
2023-05-20T08:37:34.433Z,17.55
2023-05-20T08:40:02.260Z,17.59
2023-05-20T08:42:30.087Z,18.18
2023-05-20T08:45:00.523Z,18.39
2023-05-20T08:47:28.385Z,17.93
2023-05-20T08:49:56.266Z,17.91
2023-05-20T08:52:26.153Z,17.70
2023-05-20T08:54:55.194Z,17.74
2023-05-20T08:57:23.502Z,17.52
2023-05-20T08:59:51.435Z,17.71
2023-05-20T09:02:19.203Z,17.74
2023-05-20T09:04:47.048Z,17.28
2023-05-20T09:07:14.815Z,17.56
2023-05-20T09:09:44.014Z,18.16
2023-05-20T09:12:11.740Z,18.34
2023-05-20T09:14:39.794Z,18.19
2023-05-20T09:17:08.519Z,18.01
2023-05-20T09:19:36.402Z,19.08
2023-05-20T09:22:05.998Z,19.27
2023-05-20T09:24:33.956Z,19.30
2023-05-20T09:27:03.121Z,18.41
2023-05-20T09:29:34.750Z,18.98
2023-05-20T09:32:03.998Z,18.45
2023-05-20T09:34:31.895Z,19.00
2023-05-20T09:37:01.432Z,18.95
2023-05-20T09:39:34.231Z,19.02
2023-05-20T09:42:08.223Z,18.53
2023-05-20T09:44:36.588Z,18.73
2023-05-20T09:47:08.596Z,18.71
2023-05-20T09:49:37.268Z,19.06
2023-05-20T09:52:05.863Z,19.59
2023-05-20T09:54:34.595Z,19.76
2023-05-20T09:57:06.320Z,19.62
2023-05-20T09:59:36.563Z,19.81
2023-05-20T10:02:04.833Z,20.19
2023-05-20T10:04:33.944Z,20.33
2023-05-20T10:07:40.674Z,19.92
2023-05-20T10:10:20.980Z,20.27
2023-05-20T10:13:01.211Z,20.33
2023-05-20T10:15:40.119Z,20.65
2023-05-20T10:18:16.440Z,20.34
2023-05-20T10:20:48.538Z,20.45
2023-05-20T10:23:24.038Z,19.92
2023-05-20T10:25:53.282Z,20.17
2023-05-20T10:28:31.091Z,20.26
2023-05-20T10:30:59.514Z,19.94
2023-05-20T10:33:28.536Z,20.39
2023-05-20T10:35:59.830Z,20.69
2023-05-20T10:38:27.616Z,20.89
2023-05-20T10:40:57.350Z,20.37
2023-05-20T10:43:29.703Z,20.24
2023-05-20T10:45:58.658Z,20.77
2023-05-20T10:48:28.629Z,20.45
2023-05-20T10:50:58.119Z,20.32
2023-05-20T10:53:34.228Z,20.67
2023-05-20T10:56:02.618Z,20.98
2023-05-20T10:58:38.871Z,21.01
2023-05-20T11:01:06.781Z,20.57
2023-05-20T11:03:36.395Z,20.79
2023-05-20T11:06:12.607Z,21.11
2023-05-20T11:08:40.512Z,21.73
2023-05-20T11:11:08.704Z,22.11
2023-05-20T11:13:37.850Z,21.72
2023-05-20T11:16:06.648Z,21.10
2023-05-20T11:18:34.474Z,20.73
2023-05-20T11:21:03.213Z,20.30
2023-05-20T11:23:31.868Z,20.94
2023-05-20T11:25:59.753Z,20.71
2023-05-20T11:28:27.594Z,21.06
2023-05-20T11:30:56.865Z,21.24
2023-05-20T11:33:27.873Z,21.64
2023-05-20T11:35:55.895Z,22.48
2023-05-20T11:38:23.738Z,22.55
2023-05-20T11:40:55.122Z,22.06
2023-05-20T11:43:24.469Z,21.71
2023-05-20T11:45:57.701Z,21.49
2023-05-20T11:48:26.071Z,21.37
2023-05-20T11:50:55.454Z,22.04
2023-05-20T11:53:24.465Z,21.94
2023-05-20T11:55:54.125Z,21.38
2023-05-20T11:58:24.262Z,21.32
2023-05-20T12:00:59.137Z,21.20
2023-05-20T12:03:34.803Z,21.43
2023-05-20T12:06:03.607Z,21.92
2023-05-20T12:08:31.348Z,22.46
2023-05-20T12:10:59.195Z,21.66
2023-05-20T12:13:27.101Z,20.94
2023-05-20T12:15:54.911Z,21.72
2023-05-20T12:18:23.412Z,22.23
2023-05-20T12:20:52.593Z,22.60
2023-05-20T12:23:21.333Z,23.33
2023-05-20T12:25:49.940Z,23.32
2023-05-20T12:28:18.127Z,22.65
2023-05-20T12:30:45.901Z,21.50
2023-05-20T12:33:13.701Z,21.64
2023-05-20T12:35:42.792Z,22.14
2023-05-20T12:38:11.956Z,23.53
2023-05-20T12:40:39.747Z,22.55
2023-05-20T12:43:08.105Z,22.50
2023-05-20T12:45:35.836Z,22.21
2023-05-20T12:48:03.813Z,21.68
2023-05-20T12:50:31.565Z,21.78
2023-05-20T12:52:59.332Z,22.23
2023-05-20T12:55:28.413Z,23.18
2023-05-20T12:57:56.334Z,23.37
2023-05-20T13:00:24.248Z,23.69
2023-05-20T13:02:52.486Z,22.97
2023-05-20T13:05:21.687Z,23.21
2023-05-20T13:07:50.045Z,23.60
2023-05-20T13:10:18.291Z,22.52
2023-05-20T13:12:47.481Z,22.36
2023-05-20T13:15:15.622Z,23.02
2023-05-20T13:17:43.655Z,23.33
2023-05-20T13:20:12.389Z,23.65
2023-05-20T13:22:40.176Z,23.60
2023-05-20T13:25:09.035Z,23.37
2023-05-20T13:27:36.845Z,23.07
2023-05-20T13:30:07.272Z,23.77
2023-05-20T13:32:35.163Z,22.58
2023-05-20T13:35:03.062Z,22.15
2023-05-20T13:37:31.086Z,22.51
2023-05-20T13:39:58.819Z,23.29
2023-05-20T13:42:26.745Z,23.54
2023-05-20T13:44:54.494Z,24.46
2023-05-20T13:47:23.596Z,23.04
2023-05-20T13:49:51.361Z,22.93
2023-05-20T13:52:19.104Z,22.55
2023-05-20T13:54:48.598Z,21.95
2023-05-20T13:57:16.607Z,21.52
2023-05-20T13:59:44.486Z,21.40
2023-05-20T14:02:12.299Z,22.10
2023-05-20T14:04:44.950Z,22.94
2023-05-20T14:07:12.824Z,24.11
2023-05-20T14:09:40.750Z,23.57
2023-05-20T14:12:09.266Z,23.76
2023-05-20T14:14:37.115Z,23.93
2023-05-20T14:17:05.207Z,23.38
2023-05-20T14:19:33.107Z,22.89
2023-05-20T14:22:03.262Z,22.66
2023-05-20T14:24:31.026Z,23.69
2023-05-20T14:26:58.755Z,23.87
2023-05-20T14:29:26.506Z,23.97
2023-05-20T14:31:54.357Z,23.72
2023-05-20T14:34:22.319Z,22.68
2023-05-20T14:36:50.176Z,22.82
2023-05-20T14:39:19.435Z,23.51
2023-05-20T14:41:47.248Z,23.52
2023-05-20T14:44:14.967Z,22.93
2023-05-20T14:46:42.807Z,22.69
2023-05-20T14:49:10.614Z,23.73
2023-05-20T14:51:38.364Z,23.12
2023-05-20T14:54:06.508Z,21.97
2023-05-20T14:56:35.832Z,21.69
2023-05-20T14:59:03.596Z,21.42
2023-05-20T15:01:31.402Z,20.94
2023-05-20T15:03:59.355Z,21.70
2023-05-20T15:06:27.367Z,21.90
2023-05-20T15:08:55.199Z,22.77
2023-05-20T15:11:23.122Z,23.02
2023-05-20T15:13:52.236Z,23.98
2023-05-20T15:16:20.078Z,21.93
2023-05-20T15:18:47.898Z,21.91
2023-05-20T15:21:15.682Z,21.74
2023-05-20T15:23:43.531Z,21.47
2023-05-20T15:26:12.025Z,22.11
2023-05-20T15:28:39.832Z,22.06
2023-05-20T15:31:08.967Z,22.27
2023-05-20T15:33:36.887Z,22.52
2023-05-20T15:36:05.312Z,22.73
2023-05-20T15:38:33.014Z,22.21
2023-05-20T15:41:00.898Z,22.28
2023-05-20T15:43:28.663Z,22.43
2023-05-20T15:45:56.469Z,21.79
2023-05-20T15:48:26.154Z,21.48
2023-05-20T15:50:53.997Z,21.86
2023-05-20T15:53:21.863Z,21.93
2023-05-20T15:55:49.595Z,21.56
2023-05-20T15:58:17.314Z,22.23
2023-05-20T16:00:45.076Z,21.86
2023-05-20T16:03:13.048Z,22.30
2023-05-20T16:05:42.239Z,23.00
2023-05-20T16:08:09.985Z,21.96
2023-05-20T16:10:37.755Z,21.93
2023-05-20T16:13:05.533Z,21.81
2023-05-20T16:15:36.430Z,22.44
2023-05-20T16:18:04.397Z,22.10
2023-05-20T16:20:32.354Z,22.08
2023-05-20T16:23:01.627Z,21.96
2023-05-20T16:25:29.376Z,21.70
2023-05-20T16:27:58.227Z,20.88
2023-05-20T16:30:26.116Z,21.11
2023-05-20T16:32:53.899Z,21.66
2023-05-20T16:35:21.747Z,21.38
2023-05-20T16:37:49.882Z,21.14
2023-05-20T16:40:19.008Z,21.67
2023-05-20T16:42:46.760Z,21.34
2023-05-20T16:45:14.515Z,21.50
2023-05-20T16:47:42.297Z,21.52
2023-05-20T16:50:11.225Z,21.00
2023-05-20T16:52:39.065Z,21.32
2023-05-20T16:55:08.449Z,21.36
2023-05-20T16:57:37.798Z,20.88
2023-05-20T17:00:09.509Z,20.61
2023-05-20T17:02:37.353Z,21.38
2023-05-20T17:05:05.536Z,20.62
2023-05-20T17:07:33.559Z,20.62
2023-05-20T17:10:01.562Z,20.41
2023-05-20T17:12:29.444Z,20.81
2023-05-20T17:14:58.640Z,20.83
2023-05-20T17:17:26.373Z,21.19
2023-05-20T17:19:54.755Z,21.16
2023-05-20T17:22:22.547Z,20.58
2023-05-20T17:24:50.411Z,20.88
2023-05-20T17:27:18.123Z,20.43
2023-05-20T17:29:45.996Z,20.49
2023-05-20T17:32:15.158Z,20.14
2023-05-20T17:34:42.955Z,20.68
2023-05-20T17:37:10.711Z,20.65
2023-05-20T17:39:38.539Z,20.44
2023-05-20T17:42:06.683Z,20.50
2023-05-20T17:44:34.419Z,20.60
2023-05-20T17:47:02.162Z,20.36
2023-05-20T17:49:31.368Z,20.69
2023-05-20T17:51:59.123Z,20.67
2023-05-20T17:54:26.890Z,20.57
2023-05-20T17:56:54.618Z,20.33
2023-05-20T17:59:22.407Z,20.31
2023-05-20T18:01:50.202Z,20.48
2023-05-20T18:04:18.099Z,20.79
2023-05-20T18:06:47.676Z,20.74
2023-05-20T18:09:15.429Z,20.53
2023-05-20T18:11:43.225Z,20.25
2023-05-20T18:14:11.128Z,20.30
2023-05-20T18:16:38.925Z,20.44
2023-05-20T18:19:06.741Z,20.47
2023-05-20T18:21:34.474Z,20.17
2023-05-20T18:24:03.603Z,20.04
2023-05-20T18:26:31.386Z,19.63
2023-05-20T18:28:59.165Z,20.14
2023-05-20T18:31:26.976Z,19.88
2023-05-20T18:33:54.813Z,19.99
2023-05-20T18:36:22.584Z,19.84
2023-05-20T18:38:50.346Z,20.07
2023-05-20T18:41:19.475Z,19.83
2023-05-20T18:43:47.270Z,20.07
2023-05-20T18:46:15.076Z,19.94
2023-05-20T18:48:43.098Z,20.12
2023-05-20T18:51:10.920Z,19.76
2023-05-20T18:53:38.667Z,19.48
2023-05-20T18:56:07.262Z,19.36
2023-05-20T18:58:36.393Z,19.74
2023-05-20T19:01:04.129Z,19.63
2023-05-20T19:03:31.870Z,19.74
2023-05-20T19:05:59.762Z,19.91
2023-05-20T19:08:27.615Z,19.69
2023-05-20T19:10:55.396Z,19.97
2023-05-20T19:13:23.124Z,20.04
2023-05-20T19:15:52.318Z,19.55
2023-05-20T19:18:21.430Z,19.38
2023-05-20T19:20:49.508Z,19.77
2023-05-20T19:23:17.261Z,19.76
2023-05-20T19:25:45.277Z,19.75
2023-05-20T19:28:13.295Z,19.74
2023-05-20T19:30:41.281Z,19.82
2023-05-20T19:33:10.819Z,19.72
2023-05-20T19:35:38.831Z,19.75
2023-05-20T19:38:06.865Z,19.54
2023-05-20T19:40:36.522Z,19.00
2023-05-20T19:43:04.258Z,19.07
2023-05-20T19:45:32.332Z,19.02
2023-05-20T19:48:00.196Z,19.01
2023-05-20T19:50:29.457Z,18.79
2023-05-20T19:52:57.252Z,18.78
2023-05-20T19:55:24.962Z,18.42
2023-05-20T19:57:53.622Z,18.71
2023-05-20T20:00:21.664Z,18.93
2023-05-20T20:02:50.101Z,18.99
2023-05-20T20:05:18.135Z,19.07
2023-05-20T20:07:47.967Z,18.92
2023-05-20T20:10:15.729Z,18.67
2023-05-20T20:12:43.522Z,18.23
2023-05-20T20:15:11.887Z,18.47
2023-05-20T20:17:46.029Z,18.53
2023-05-20T20:20:14.891Z,18.62
2023-05-20T20:22:42.736Z,18.65
2023-05-20T20:25:13.823Z,18.37
2023-05-20T20:27:43.864Z,18.68
2023-05-20T20:30:12.933Z,18.70
2023-05-20T20:32:41.295Z,18.69
2023-05-20T20:35:10.803Z,18.79
2023-05-20T20:37:38.621Z,18.54
2023-05-20T20:40:13.641Z,18.53
2023-05-20T20:42:45.141Z,18.39
2023-05-20T20:45:13.339Z,18.53
2023-05-20T20:47:41.481Z,18.27
2023-05-20T20:50:10.000Z,18.21
2023-05-20T20:52:38.670Z,18.35
2023-05-20T20:55:07.453Z,18.13
2023-05-20T20:57:35.550Z,17.89
2023-05-20T21:00:15.971Z,17.67
2023-05-20T21:02:44.015Z,17.45
2023-05-20T21:05:11.839Z,17.54
2023-05-20T21:07:42.448Z,17.56
2023-05-20T21:10:11.234Z,17.51
2023-05-20T21:12:39.007Z,17.22
2023-05-20T21:15:09.961Z,16.99
2023-05-20T21:17:37.722Z,16.93
2023-05-20T21:20:07.426Z,16.71
2023-05-20T21:22:35.236Z,16.67
2023-05-20T21:25:03.146Z,16.93
2023-05-20T21:27:30.936Z,16.77
2023-05-20T21:29:58.684Z,16.36
2023-05-20T21:32:27.879Z,16.82
2023-05-20T21:34:58.157Z,17.06
2023-05-20T21:37:26.103Z,16.82
2023-05-20T21:39:53.874Z,17.00
2023-05-20T21:42:21.598Z,16.62
2023-05-20T21:44:49.355Z,16.70
2023-05-20T21:47:17.767Z,16.85
2023-05-20T21:49:47.401Z,16.98
2023-05-20T21:52:15.257Z,17.18
2023-05-20T21:54:43.036Z,16.76
2023-05-20T21:57:10.775Z,16.40
2023-05-20T21:59:38.567Z,16.49
2023-05-20T22:02:06.780Z,16.47
2023-05-20T22:04:34.769Z,16.42
2023-05-20T22:07:03.998Z,16.47
2023-05-20T22:09:31.750Z,16.79
2023-05-20T22:11:59.821Z,16.75
2023-05-20T22:14:27.689Z,16.83
2023-05-20T22:16:55.905Z,16.77
2023-05-20T22:19:23.723Z,16.78
2023-05-20T22:21:51.513Z,16.46
2023-05-20T22:24:20.690Z,16.28
2023-05-20T22:26:48.431Z,16.53
2023-05-20T22:29:16.192Z,16.20
2023-05-20T22:31:43.961Z,15.97
2023-05-20T22:34:11.714Z,16.12
2023-05-20T22:36:39.446Z,15.62
2023-05-20T22:39:07.211Z,15.64
2023-05-20T22:41:36.577Z,16.12
2023-05-20T22:44:04.514Z,15.43
2023-05-20T22:46:32.449Z,15.52
2023-05-20T22:49:01.717Z,15.76
2023-05-20T22:51:31.205Z,16.04
2023-05-20T22:53:58.979Z,16.05
2023-05-20T22:56:26.864Z,15.78
2023-05-20T22:58:55.969Z,16.10
2023-05-20T23:01:24.058Z,16.02
2023-05-20T23:03:53.655Z,16.02
2023-05-20T23:06:22.688Z,16.27
2023-05-20T23:08:50.844Z,16.07
2023-05-20T23:11:18.622Z,16.19
2023-05-20T23:13:46.515Z,16.27
2023-05-20T23:16:15.688Z,16.29
2023-05-20T23:18:43.496Z,16.29
2023-05-20T23:21:11.746Z,16.21
2023-05-20T23:23:39.510Z,16.32
2023-05-20T23:26:07.820Z,16.47
2023-05-20T23:28:35.683Z,16.28
2023-05-20T23:31:03.514Z,16.12
2023-05-20T23:33:32.750Z,16.23
2023-05-20T23:36:00.568Z,16.27
2023-05-20T23:38:28.372Z,16.17
2023-05-20T23:40:56.106Z,16.07
2023-05-20T23:43:23.935Z,16.17
2023-05-20T23:45:51.718Z,16.13
2023-05-20T23:48:19.906Z,16.14
2023-05-20T23:50:49.309Z,16.01
2023-05-20T23:53:17.107Z,16.19
2023-05-20T23:55:45.379Z,16.22
2023-05-20T23:58:13.192Z,16.11
